Airfield :
LOGIN :

Register | Disclaimer

   EN    FR    IT 

 










Legend :    VFR   Marginal VFR   IFR   Intensive IFR   Very Intensive IFR
Visi :
Ceiling :
>= 8 km
>= 3000ft
5 to 8 km
1000 to 3000 ft
1500m to 5 km
500 to 1000 ft
800 to 1500m
200 to 500 ft
< 800m
< 200 ft
Symbols :   Thunderstorms  Fog  Heavy snow  Heavy precipitations  Wind > 20 kt
SIGMETs :     Misc.  Thunderstorms  Icing  Turbulence  Mountain Waves  Volcanic Ashes






- Airport Elevation : 125 ft
- IATA code : MGL


EDLN - Mönchengladbach

CURRENT METAR :
  • 181050Z 24011KT 210V290 9999 -RA SCT017 BKN030 05/03 Q1025

EXPIRED METARs :
  • 181020Z 22010KT 9999 SCT017 BKN024 06/03 Q1024
  • 180950Z 22009KT 190V250 9999 BKN020 05/03 Q1024
  • 180920Z 22009KT 9999 FEW015 BKN020 05/03 Q1024
  • 180850Z 22008KT 9999 FEW015 BKN020 05/02 Q1024
  • 180820Z 22008KT 9999 FEW015 BKN020 05/02 Q1024

TAF TAF EDLN
Valid from the 18 at 09:00 until the 18 at 18:00 UTC


180800Z 1809/1818 25007KT 9999 SCT040
PROB30
TEMPO 1813/1818 SHRAGS BKN020CB



MET'MAP, your aeronautical weather chart ! - Copyright ORBIFLY December 2007 - Disclaimer

ORBIFLY MET'MAP TEAM :

Programming & Development : Alexandra Zaïnal
Concept & original design : Baudouin d'Aumeries
Assistance for programming : Marc-Olivier Méhu
Technical & hardware support : Manuel Goepfert

Contact : metmap@orbifly.com




SOURCES & CREDITS :

   NOAA